Terminal Aerodrome Forecast
Issued by NWS Topeka, KS

Home | Current Version | Previous Version | Graphics & Text | Print | Product List | Glossary Off
Versions: 1 2 3 4 5 6 7 8 9 10 11 12 13 14 15 16 17 18

000
FTUS43 KTOP 221500 AAB
TAFTOP
TAF AMD
KTOP 221540Z 2216/2312 17004KT 1SM -DZ BR VV003
      TEMPO 2216/2217 1SM BR OVC005
     FM221800 19011KT 5SM BR BKN015 OVC025
     FM230700 18010KT 2SM BR OVC009=

USA.gov is the U.S. government's official web portal to all federal, state and local government web resources and services.